sensor_id;sensor_type;location;lat;lon;timestamp;temperature;humidity
14006;DHT22;7078;51.542;7.314;2023-07-29T00:00:46;18.70;99.90
14006;DHT22;7078;51.542;7.314;2023-07-29T00:03:12;18.70;99.90
14006;DHT22;7078;51.542;7.314;2023-07-29T00:05:38;18.70;99.90
14006;DHT22;7078;51.542;7.314;2023-07-29T00:08:03;18.60;99.90
14006;DHT22;7078;51.542;7.314;2023-07-29T00:10:31;18.60;99.90
14006;DHT22;7078;51.542;7.314;2023-07-29T00:12:57;18.60;99.90
14006;DHT22;7078;51.542;7.314;2023-07-29T00:15:23;18.60;99.90
14006;DHT22;7078;51.542;7.314;2023-07-29T00:17:48;18.70;99.90
14006;DHT22;7078;51.542;7.314;2023-07-29T00:20:14;18.60;99.90
14006;DHT22;7078;51.542;7.314;2023-07-29T00:22:40;18.60;99.90
14006;DHT22;7078;51.542;7.314;2023-07-29T00:25:06;18.70;99.90
14006;DHT22;7078;51.542;7.314;2023-07-29T00:27:32;18.50;99.90
14006;DHT22;7078;51.542;7.314;2023-07-29T00:29:58;18.70;99.90
14006;DHT22;7078;51.542;7.314;2023-07-29T00:32:23;18.50;99.90
14006;DHT22;7078;51.542;7.314;2023-07-29T00:34:49;18.40;99.90
14006;DHT22;7078;51.542;7.314;2023-07-29T00:37:14;18.50;99.90
14006;DHT22;7078;51.542;7.314;2023-07-29T00:39:40;18.50;99.90
14006;DHT22;7078;51.542;7.314;2023-07-29T00:42:06;18.50;99.90
14006;DHT22;7078;51.542;7.314;2023-07-29T00:44:32;18.50;99.90
14006;DHT22;7078;51.542;7.314;2023-07-29T00:46:58;18.50;99.90
14006;DHT22;7078;51.542;7.314;2023-07-29T00:49:26;18.40;99.90
14006;DHT22;7078;51.542;7.314;2023-07-29T00:51:51;18.50;99.90
14006;DHT22;7078;51.542;7.314;2023-07-29T00:54:17;18.50;99.90
14006;DHT22;7078;51.542;7.314;2023-07-29T00:56:43;18.60;99.90
14006;DHT22;7078;51.542;7.314;2023-07-29T00:59:08;18.50;99.90
14006;DHT22;7078;51.542;7.314;2023-07-29T01:01:34;18.50;99.90
14006;DHT22;7078;51.542;7.314;2023-07-29T01:03:59;18.70;99.90
14006;DHT22;7078;51.542;7.314;2023-07-29T01:12:20;18.50;99.90
14006;DHT22;7078;51.542;7.314;2023-07-29T01:15:05;18.60;99.90
14006;DHT22;7078;51.542;7.314;2023-07-29T01:17:42;18.50;99.90
14006;DHT22;7078;51.542;7.314;2023-07-29T01:20:09;18.50;99.90
14006;DHT22;7078;51.542;7.314;2023-07-29T01:22:37;18.50;99.90
14006;DHT22;7078;51.542;7.314;2023-07-29T01:25:03;18.50;99.90
14006;DHT22;7078;51.542;7.314;2023-07-29T01:27:29;18.50;99.90
14006;DHT22;7078;51.542;7.314;2023-07-29T01:29:57;18.40;99.90
14006;DHT22;7078;51.542;7.314;2023-07-29T01:32:37;18.40;99.90
14006;DHT22;7078;51.542;7.314;2023-07-29T01:35:15;18.40;99.90
14006;DHT22;7078;51.542;7.314;2023-07-29T01:37:46;18.40;99.90
14006;DHT22;7078;51.542;7.314;2023-07-29T01:40:13;18.30;99.90
14006;DHT22;7078;51.542;7.314;2023-07-29T01:42:39;18.40;99.90
14006;DHT22;7078;51.542;7.314;2023-07-29T01:45:05;18.30;99.90
14006;DHT22;7078;51.542;7.314;2023-07-29T01:47:31;18.30;99.90
14006;DHT22;7078;51.542;7.314;2023-07-29T01:49:56;18.30;99.90
14006;DHT22;7078;51.542;7.314;2023-07-29T01:52:22;18.30;99.90
14006;DHT22;7078;51.542;7.314;2023-07-29T01:54:48;18.30;99.90
14006;DHT22;7078;51.542;7.314;2023-07-29T01:57:13;18.30;99.90
14006;DHT22;7078;51.542;7.314;2023-07-29T01:59:39;18.40;99.90
14006;DHT22;7078;51.542;7.314;2023-07-29T02:02:04;18.40;99.90
14006;DHT22;7078;51.542;7.314;2023-07-29T02:04:30;18.30;99.90
14006;DHT22;7078;51.542;7.314;2023-07-29T02:06:56;18.30;99.90
14006;DHT22;7078;51.542;7.314;2023-07-29T02:09:21;18.30;99.90
14006;DHT22;7078;51.542;7.314;2023-07-29T02:11:47;18.30;99.90
14006;DHT22;7078;51.542;7.314;2023-07-29T02:14:12;18.30;99.90
14006;DHT22;7078;51.542;7.314;2023-07-29T02:16:38;18.30;99.90
14006;DHT22;7078;51.542;7.314;2023-07-29T02:19:04;18.40;99.90
14006;DHT22;7078;51.542;7.314;2023-07-29T02:21:30;18.40;99.90
14006;DHT22;7078;51.542;7.314;2023-07-29T02:23:55;18.40;99.90
14006;DHT22;7078;51.542;7.314;2023-07-29T02:26:22;18.40;99.90
14006;DHT22;7078;51.542;7.314;2023-07-29T02:28:47;18.30;99.90
14006;DHT22;7078;51.542;7.314;2023-07-29T02:31:24;18.40;99.90
14006;DHT22;7078;51.542;7.314;2023-07-29T02:33:50;18.40;99.90
14006;DHT22;7078;51.542;7.314;2023-07-29T02:36:17;18.30;99.90
14006;DHT22;7078;51.542;7.314;2023-07-29T02:38:42;18.30;99.90
14006;DHT22;7078;51.542;7.314;2023-07-29T02:41:09;18.50;99.90
14006;DHT22;7078;51.542;7.314;2023-07-29T02:43:35;18.30;99.90
14006;DHT22;7078;51.542;7.314;2023-07-29T02:46:02;18.40;99.90
14006;DHT22;7078;51.542;7.314;2023-07-29T02:48:28;18.30;99.90
14006;DHT22;7078;51.542;7.314;2023-07-29T02:50:54;18.30;99.90
14006;DHT22;7078;51.542;7.314;2023-07-29T02:53:19;18.30;99.90
14006;DHT22;7078;51.542;7.314;2023-07-29T02:55:45;18.30;99.90
14006;DHT22;7078;51.542;7.314;2023-07-29T02:58:11;18.30;99.90
14006;DHT22;7078;51.542;7.314;2023-07-29T03:00:36;18.30;99.90
14006;DHT22;7078;51.542;7.314;2023-07-29T03:03:02;18.30;99.90
14006;DHT22;7078;51.542;7.314;2023-07-29T03:05:28;18.30;99.90
14006;DHT22;7078;51.542;7.314;2023-07-29T03:07:54;18.40;99.90
14006;DHT22;7078;51.542;7.314;2023-07-29T03:10:19;18.30;99.90
14006;DHT22;7078;51.542;7.314;2023-07-29T03:12:46;18.30;99.90
14006;DHT22;7078;51.542;7.314;2023-07-29T03:15:12;18.30;99.90
14006;DHT22;7078;51.542;7.314;2023-07-29T03:17:38;18.30;99.90
14006;DHT22;7078;51.542;7.314;2023-07-29T03:20:04;18.30;99.90
14006;DHT22;7078;51.542;7.314;2023-07-29T03:22:30;18.30;99.90
14006;DHT22;7078;51.542;7.314;2023-07-29T03:24:55;18.30;99.90
14006;DHT22;7078;51.542;7.314;2023-07-29T03:27:21;18.40;99.90
14006;DHT22;7078;51.542;7.314;2023-07-29T03:29:46;18.30;99.90
14006;DHT22;7078;51.542;7.314;2023-07-29T03:32:13;18.30;99.90
14006;DHT22;7078;51.542;7.314;2023-07-29T03:34:38;18.30;99.90
14006;DHT22;7078;51.542;7.314;2023-07-29T03:37:05;18.30;99.90
14006;DHT22;7078;51.542;7.314;2023-07-29T03:39:31;18.30;99.90
14006;DHT22;7078;51.542;7.314;2023-07-29T03:41:57;18.30;99.90
14006;DHT22;7078;51.542;7.314;2023-07-29T03:44:23;18.30;99.90
14006;DHT22;7078;51.542;7.314;2023-07-29T03:46:49;18.30;99.90
14006;DHT22;7078;51.542;7.314;2023-07-29T03:49:14;18.30;99.90
14006;DHT22;7078;51.542;7.314;2023-07-29T03:51:40;18.40;99.90
14006;DHT22;7078;51.542;7.314;2023-07-29T03:54:06;18.30;99.90
14006;DHT22;7078;51.542;7.314;2023-07-29T03:56:32;18.40;99.90
14006;DHT22;7078;51.542;7.314;2023-07-29T03:59:07;18.40;99.90
14006;DHT22;7078;51.542;7.314;2023-07-29T04:01:32;18.40;99.90
14006;DHT22;7078;51.542;7.314;2023-07-29T04:03:58;18.40;99.90
14006;DHT22;7078;51.542;7.314;2023-07-29T04:06:24;18.40;99.90
14006;DHT22;7078;51.542;7.314;2023-07-29T04:08:50;18.40;99.90
14006;DHT22;7078;51.542;7.314;2023-07-29T04:11:15;18.40;99.90
14006;DHT22;7078;51.542;7.314;2023-07-29T04:13:41;18.40;99.90
14006;DHT22;7078;51.542;7.314;2023-07-29T04:16:07;18.50;99.90
14006;DHT22;7078;51.542;7.314;2023-07-29T04:18:32;18.50;99.90
14006;DHT22;7078;51.542;7.314;2023-07-29T04:20:58;18.50;99.90
14006;DHT22;7078;51.542;7.314;2023-07-29T04:23:24;18.50;99.90
14006;DHT22;7078;51.542;7.314;2023-07-29T04:25:49;18.50;99.90
14006;DHT22;7078;51.542;7.314;2023-07-29T04:28:15;18.50;99.90
14006;DHT22;7078;51.542;7.314;2023-07-29T04:30:41;18.40;99.90
14006;DHT22;7078;51.542;7.314;2023-07-29T04:33:07;18.50;99.90
14006;DHT22;7078;51.542;7.314;2023-07-29T04:35:32;18.50;99.90
14006;DHT22;7078;51.542;7.314;2023-07-29T04:37:58;18.50;99.90
14006;DHT22;7078;51.542;7.314;2023-07-29T04:40:23;18.60;99.90
14006;DHT22;7078;51.542;7.314;2023-07-29T04:42:49;18.60;99.90
14006;DHT22;7078;51.542;7.314;2023-07-29T04:45:15;18.70;99.90
14006;DHT22;7078;51.542;7.314;2023-07-29T04:47:41;18.60;99.90
14006;DHT22;7078;51.542;7.314;2023-07-29T04:50:07;18.50;99.90
14006;DHT22;7078;51.542;7.314;2023-07-29T04:52:33;18.70;99.90
14006;DHT22;7078;51.542;7.314;2023-07-29T04:54:58;18.70;99.90
14006;DHT22;7078;51.542;7.314;2023-07-29T04:57:24;18.70;99.90
14006;DHT22;7078;51.542;7.314;2023-07-29T04:59:50;18.70;99.90
14006;DHT22;7078;51.542;7.314;2023-07-29T05:02:15;18.70;99.90
14006;DHT22;7078;51.542;7.314;2023-07-29T05:04:41;18.70;99.90
14006;DHT22;7078;51.542;7.314;2023-07-29T05:07:06;18.70;99.90
14006;DHT22;7078;51.542;7.314;2023-07-29T05:09:32;18.70;99.90
14006;DHT22;7078;51.542;7.314;2023-07-29T05:11:57;18.70;99.90
14006;DHT22;7078;51.542;7.314;2023-07-29T05:14:23;18.80;99.90
14006;DHT22;7078;51.542;7.314;2023-07-29T05:16:49;18.70;99.90
14006;DHT22;7078;51.542;7.314;2023-07-29T05:19:14;18.60;99.90
14006;DHT22;7078;51.542;7.314;2023-07-29T05:21:40;18.60;99.90
14006;DHT22;7078;51.542;7.314;2023-07-29T05:24:06;18.60;99.90
14006;DHT22;7078;51.542;7.314;2023-07-29T05:26:31;18.70;99.90
14006;DHT22;7078;51.542;7.314;2023-07-29T05:28:57;18.70;99.90
14006;DHT22;7078;51.542;7.314;2023-07-29T05:31:22;18.60;99.90
14006;DHT22;7078;51.542;7.314;2023-07-29T05:33:48;18.70;99.90
14006;DHT22;7078;51.542;7.314;2023-07-29T05:36:14;18.60;99.90
14006;DHT22;7078;51.542;7.314;2023-07-29T05:38:39;18.70;99.90
14006;DHT22;7078;51.542;7.314;2023-07-29T05:41:05;18.80;99.90
14006;DHT22;7078;51.542;7.314;2023-07-29T05:43:30;18.80;99.90
14006;DHT22;7078;51.542;7.314;2023-07-29T05:45:56;18.90;99.90
14006;DHT22;7078;51.542;7.314;2023-07-29T05:48:22;18.90;99.90
14006;DHT22;7078;51.542;7.314;2023-07-29T05:50:47;18.90;99.90
14006;DHT22;7078;51.542;7.314;2023-07-29T05:53:14;18.90;99.90
14006;DHT22;7078;51.542;7.314;2023-07-29T05:55:39;18.90;99.90
14006;DHT22;7078;51.542;7.314;2023-07-29T05:58:05;19.10;99.90
14006;DHT22;7078;51.542;7.314;2023-07-29T06:00:31;19.00;99.90
14006;DHT22;7078;51.542;7.314;2023-07-29T06:02:56;18.90;99.90
14006;DHT22;7078;51.542;7.314;2023-07-29T06:05:22;19.00;99.90
14006;DHT22;7078;51.542;7.314;2023-07-29T06:07:48;18.90;99.90
14006;DHT22;7078;51.542;7.314;2023-07-29T06:10:15;18.90;99.90
14006;DHT22;7078;51.542;7.314;2023-07-29T06:12:47;18.90;99.90
14006;DHT22;7078;51.542;7.314;2023-07-29T06:15:13;18.90;99.90
14006;DHT22;7078;51.542;7.314;2023-07-29T06:17:39;18.70;99.90
14006;DHT22;7078;51.542;7.314;2023-07-29T06:20:05;18.80;99.90
14006;DHT22;7078;51.542;7.314;2023-07-29T06:22:31;18.80;99.90
14006;DHT22;7078;51.542;7.314;2023-07-29T06:24:57;18.70;99.90
14006;DHT22;7078;51.542;7.314;2023-07-29T06:27:22;18.70;99.90
14006;DHT22;7078;51.542;7.314;2023-07-29T06:29:50;18.80;99.90
14006;DHT22;7078;51.542;7.314;2023-07-29T06:32:15;18.70;99.90
14006;DHT22;7078;51.542;7.314;2023-07-29T06:34:41;18.60;99.90
14006;DHT22;7078;51.542;7.314;2023-07-29T06:37:06;18.70;99.90
14006;DHT22;7078;51.542;7.314;2023-07-29T06:39:32;18.70;99.90
14006;DHT22;7078;51.542;7.314;2023-07-29T06:41:58;18.80;99.90
14006;DHT22;7078;51.542;7.314;2023-07-29T06:44:23;18.70;99.90
14006;DHT22;7078;51.542;7.314;2023-07-29T06:46:49;18.70;99.90
14006;DHT22;7078;51.542;7.314;2023-07-29T06:49:14;18.70;99.90
14006;DHT22;7078;51.542;7.314;2023-07-29T06:51:40;18.70;99.90
14006;DHT22;7078;51.542;7.314;2023-07-29T06:54:06;18.70;99.90
14006;DHT22;7078;51.542;7.314;2023-07-29T06:56:31;18.90;99.90
14006;DHT22;7078;51.542;7.314;2023-07-29T06:58:57;18.80;99.90
14006;DHT22;7078;51.542;7.314;2023-07-29T07:01:22;18.80;99.90
14006;DHT22;7078;51.542;7.314;2023-07-29T07:03:48;18.80;99.90
14006;DHT22;7078;51.542;7.314;2023-07-29T07:06:13;18.80;99.90
14006;DHT22;7078;51.542;7.314;2023-07-29T07:08:39;18.80;99.90
14006;DHT22;7078;51.542;7.314;2023-07-29T07:11:05;18.80;99.90
14006;DHT22;7078;51.542;7.314;2023-07-29T07:13:30;18.80;99.90
14006;DHT22;7078;51.542;7.314;2023-07-29T07:15:56;18.90;99.90
14006;DHT22;7078;51.542;7.314;2023-07-29T07:18:22;18.90;99.90
14006;DHT22;7078;51.542;7.314;2023-07-29T07:20:51;18.90;99.90
14006;DHT22;7078;51.542;7.314;2023-07-29T07:23:18;18.90;99.90
14006;DHT22;7078;51.542;7.314;2023-07-29T07:25:43;18.90;99.90
14006;DHT22;7078;51.542;7.314;2023-07-29T07:28:09;19.00;99.90
14006;DHT22;7078;51.542;7.314;2023-07-29T07:30:35;19.00;99.90
14006;DHT22;7078;51.542;7.314;2023-07-29T07:33:01;19.10;99.90
14006;DHT22;7078;51.542;7.314;2023-07-29T07:35:27;18.90;99.90
14006;DHT22;7078;51.542;7.314;2023-07-29T07:37:52;19.00;99.90
14006;DHT22;7078;51.542;7.314;2023-07-29T07:40:19;19.20;99.90
14006;DHT22;7078;51.542;7.314;2023-07-29T07:42:44;19.30;99.90
14006;DHT22;7078;51.542;7.314;2023-07-29T07:45:10;19.60;99.90
14006;DHT22;7078;51.542;7.314;2023-07-29T07:47:35;19.80;99.90
14006;DHT22;7078;51.542;7.314;2023-07-29T07:50:01;19.80;99.90
14006;DHT22;7078;51.542;7.314;2023-07-29T07:52:27;19.90;99.90
14006;DHT22;7078;51.542;7.314;2023-07-29T07:54:53;20.00;99.90
14006;DHT22;7078;51.542;7.314;2023-07-29T07:57:20;20.10;99.90
14006;DHT22;7078;51.542;7.314;2023-07-29T07:59:46;20.30;99.90
14006;DHT22;7078;51.542;7.314;2023-07-29T08:02:11;20.50;99.90
14006;DHT22;7078;51.542;7.314;2023-07-29T08:04:37;20.80;99.90
14006;DHT22;7078;51.542;7.314;2023-07-29T08:07:02;20.80;99.90
14006;DHT22;7078;51.542;7.314;2023-07-29T08:09:28;20.80;99.90
14006;DHT22;7078;51.542;7.314;2023-07-29T08:11:54;20.90;99.90
14006;DHT22;7078;51.542;7.314;2023-07-29T08:14:19;20.80;99.90
14006;DHT22;7078;51.542;7.314;2023-07-29T08:16:45;20.90;99.90
14006;DHT22;7078;51.542;7.314;2023-07-29T08:19:10;20.90;99.90
14006;DHT22;7078;51.542;7.314;2023-07-29T08:21:36;20.70;99.90
14006;DHT22;7078;51.542;7.314;2023-07-29T08:24:01;20.60;99.90
14006;DHT22;7078;51.542;7.314;2023-07-29T08:26:27;20.50;99.90
14006;DHT22;7078;51.542;7.314;2023-07-29T08:28:53;20.70;99.90
14006;DHT22;7078;51.542;7.314;2023-07-29T08:31:18;20.80;99.90
14006;DHT22;7078;51.542;7.314;2023-07-29T08:33:44;21.00;99.90
14006;DHT22;7078;51.542;7.314;2023-07-29T08:36:09;21.20;99.90
14006;DHT22;7078;51.542;7.314;2023-07-29T08:38:35;21.40;99.90
14006;DHT22;7078;51.542;7.314;2023-07-29T08:46:16;21.20;99.90
14006;DHT22;7078;51.542;7.314;2023-07-29T08:48:43;21.40;99.90
14006;DHT22;7078;51.542;7.314;2023-07-29T08:51:10;21.40;99.90
14006;DHT22;7078;51.542;7.314;2023-07-29T08:53:36;21.60;99.90
14006;DHT22;7078;51.542;7.314;2023-07-29T08:56:03;21.40;99.90
14006;DHT22;7078;51.542;7.314;2023-07-29T08:58:28;21.40;99.90
14006;DHT22;7078;51.542;7.314;2023-07-29T09:00:54;21.40;99.90
14006;DHT22;7078;51.542;7.314;2023-07-29T09:03:20;21.60;99.90
14006;DHT22;7078;51.542;7.314;2023-07-29T09:05:46;21.60;99.90
14006;DHT22;7078;51.542;7.314;2023-07-29T09:08:12;21.60;99.90
14006;DHT22;7078;51.542;7.314;2023-07-29T09:10:38;21.60;99.90
14006;DHT22;7078;51.542;7.314;2023-07-29T09:13:04;21.60;99.90
14006;DHT22;7078;51.542;7.314;2023-07-29T09:15:32;21.70;99.90
14006;DHT22;7078;51.542;7.314;2023-07-29T09:17:58;21.90;99.90
14006;DHT22;7078;51.542;7.314;2023-07-29T09:20:27;22.10;99.90
14006;DHT22;7078;51.542;7.314;2023-07-29T09:22:55;22.00;99.90
14006;DHT22;7078;51.542;7.314;2023-07-29T09:25:28;22.10;99.90
14006;DHT22;7078;51.542;7.314;2023-07-29T09:28:00;22.10;99.90
14006;DHT22;7078;51.542;7.314;2023-07-29T09:30:27;22.20;99.90
14006;DHT22;7078;51.542;7.314;2023-07-29T09:32:56;22.20;99.90
14006;DHT22;7078;51.542;7.314;2023-07-29T09:35:22;22.30;99.90
14006;DHT22;7078;51.542;7.314;2023-07-29T09:37:50;22.50;99.90
14006;DHT22;7078;51.542;7.314;2023-07-29T09:40:17;22.60;99.90
14006;DHT22;7078;51.542;7.314;2023-07-29T09:43:01;22.60;99.90
14006;DHT22;7078;51.542;7.314;2023-07-29T09:45:27;22.60;99.90
14006;DHT22;7078;51.542;7.314;2023-07-29T09:47:53;22.60;99.90
14006;DHT22;7078;51.542;7.314;2023-07-29T09:50:23;22.70;99.90
14006;DHT22;7078;51.542;7.314;2023-07-29T09:52:50;22.80;99.90
14006;DHT22;7078;51.542;7.314;2023-07-29T09:55:21;22.70;99.90
14006;DHT22;7078;51.542;7.314;2023-07-29T09:57:47;22.90;99.90
14006;DHT22;7078;51.542;7.314;2023-07-29T10:00:13;22.80;99.90
14006;DHT22;7078;51.542;7.314;2023-07-29T10:02:40;22.70;99.90
14006;DHT22;7078;51.542;7.314;2023-07-29T10:05:08;22.60;99.90
14006;DHT22;7078;51.542;7.314;2023-07-29T10:07:38;22.60;99.90
14006;DHT22;7078;51.542;7.314;2023-07-29T10:10:05;22.50;99.90
14006;DHT22;7078;51.542;7.314;2023-07-29T10:12:31;22.40;99.90
14006;DHT22;7078;51.542;7.314;2023-07-29T10:15:04;22.30;99.90
14006;DHT22;7078;51.542;7.314;2023-07-29T10:17:31;22.40;99.90
14006;DHT22;7078;51.542;7.314;2023-07-29T10:19:59;22.40;99.90
14006;DHT22;7078;51.542;7.314;2023-07-29T10:22:28;22.60;99.90
14006;DHT22;7078;51.542;7.314;2023-07-29T10:25:04;22.60;99.90
14006;DHT22;7078;51.542;7.314;2023-07-29T10:27:56;22.70;99.90
14006;DHT22;7078;51.542;7.314;2023-07-29T10:30:24;22.50;99.90
14006;DHT22;7078;51.542;7.314;2023-07-29T10:32:50;22.80;99.90
14006;DHT22;7078;51.542;7.314;2023-07-29T10:35:17;22.90;99.90
14006;DHT22;7078;51.542;7.314;2023-07-29T10:37:43;23.00;99.90
14006;DHT22;7078;51.542;7.314;2023-07-29T10:40:10;23.30;99.90
14006;DHT22;7078;51.542;7.314;2023-07-29T10:42:39;23.60;99.90
14006;DHT22;7078;51.542;7.314;2023-07-29T10:45:24;23.60;99.90
14006;DHT22;7078;51.542;7.314;2023-07-29T10:47:50;23.90;99.90
14006;DHT22;7078;51.542;7.314;2023-07-29T10:50:20;23.90;99.90
14006;DHT22;7078;51.542;7.314;2023-07-29T10:52:52;23.70;99.90
14006;DHT22;7078;51.542;7.314;2023-07-29T10:55:34;23.40;99.90
14006;DHT22;7078;51.542;7.314;2023-07-29T11:00:31;23.90;99.90
14006;DHT22;7078;51.542;7.314;2023-07-29T11:03:02;23.70;99.90
14006;DHT22;7078;51.542;7.314;2023-07-29T11:05:52;23.50;99.90
14006;DHT22;7078;51.542;7.314;2023-07-29T11:11:05;23.00;99.90
14006;DHT22;7078;51.542;7.314;2023-07-29T11:13:33;22.90;99.90
14006;DHT22;7078;51.542;7.314;2023-07-29T11:15:59;22.70;99.90
14006;DHT22;7078;51.542;7.314;2023-07-29T11:18:29;22.60;99.90
14006;DHT22;7078;51.542;7.314;2023-07-29T11:20:56;22.60;99.90
14006;DHT22;7078;51.542;7.314;2023-07-29T11:23:33;22.70;99.90
14006;DHT22;7078;51.542;7.314;2023-07-29T11:25:59;22.90;99.90
14006;DHT22;7078;51.542;7.314;2023-07-29T11:28:26;23.20;99.90
14006;DHT22;7078;51.542;7.314;2023-07-29T11:30:52;23.50;99.90
14006;DHT22;7078;51.542;7.314;2023-07-29T11:33:20;23.60;99.90
14006;DHT22;7078;51.542;7.314;2023-07-29T11:35:46;23.70;99.90
14006;DHT22;7078;51.542;7.314;2023-07-29T11:38:19;23.90;99.90
14006;DHT22;7078;51.542;7.314;2023-07-29T11:40:56;24.20;99.90
14006;DHT22;7078;51.542;7.314;2023-07-29T11:43:21;24.00;99.90
14006;DHT22;7078;51.542;7.314;2023-07-29T11:45:47;24.00;99.90
14006;DHT22;7078;51.542;7.314;2023-07-29T11:48:13;23.80;99.90
14006;DHT22;7078;51.542;7.314;2023-07-29T11:50:38;23.80;99.90
14006;DHT22;7078;51.542;7.314;2023-07-29T11:53:04;23.90;99.90
14006;DHT22;7078;51.542;7.314;2023-07-29T11:55:30;24.10;99.90
14006;DHT22;7078;51.542;7.314;2023-07-29T11:57:56;24.10;99.90
14006;DHT22;7078;51.542;7.314;2023-07-29T12:00:22;24.40;99.90
14006;DHT22;7078;51.542;7.314;2023-07-29T12:02:49;24.40;99.90
14006;DHT22;7078;51.542;7.314;2023-07-29T12:05:15;24.30;99.90
14006;DHT22;7078;51.542;7.314;2023-07-29T12:07:42;24.10;99.90
14006;DHT22;7078;51.542;7.314;2023-07-29T12:10:09;23.90;99.90
14006;DHT22;7078;51.542;7.314;2023-07-29T12:12:45;23.80;99.90
14006;DHT22;7078;51.542;7.314;2023-07-29T12:15:11;24.00;99.90
14006;DHT22;7078;51.542;7.314;2023-07-29T12:17:40;24.30;99.90
14006;DHT22;7078;51.542;7.314;2023-07-29T12:20:08;24.40;99.90
14006;DHT22;7078;51.542;7.314;2023-07-29T12:22:34;24.50;99.90
14006;DHT22;7078;51.542;7.314;2023-07-29T12:25:01;24.70;99.90
14006;DHT22;7078;51.542;7.314;2023-07-29T12:27:30;24.70;99.90
14006;DHT22;7078;51.542;7.314;2023-07-29T12:29:55;24.70;99.90
14006;DHT22;7078;51.542;7.314;2023-07-29T12:32:25;24.70;99.90
14006;DHT22;7078;51.542;7.314;2023-07-29T12:34:53;24.90;99.90
14006;DHT22;7078;51.542;7.314;2023-07-29T12:37:19;24.80;99.90
14006;DHT22;7078;51.542;7.314;2023-07-29T12:39:44;24.70;99.90
14006;DHT22;7078;51.542;7.314;2023-07-29T12:42:10;24.60;99.90
14006;DHT22;7078;51.542;7.314;2023-07-29T12:44:36;24.50;99.90
14006;DHT22;7078;51.542;7.314;2023-07-29T12:47:03;24.50;99.90
14006;DHT22;7078;51.542;7.314;2023-07-29T12:49:29;24.50;99.90
14006;DHT22;7078;51.542;7.314;2023-07-29T12:51:56;24.40;99.90
14006;DHT22;7078;51.542;7.314;2023-07-29T12:54:22;24.30;99.90
14006;DHT22;7078;51.542;7.314;2023-07-29T12:56:47;24.10;99.90
14006;DHT22;7078;51.542;7.314;2023-07-29T12:59:13;23.90;99.90
14006;DHT22;7078;51.542;7.314;2023-07-29T13:01:38;23.90;99.90
14006;DHT22;7078;51.542;7.314;2023-07-29T13:04:04;24.00;99.90
14006;DHT22;7078;51.542;7.314;2023-07-29T13:06:30;24.10;99.90
14006;DHT22;7078;51.542;7.314;2023-07-29T13:08:56;24.30;99.90
14006;DHT22;7078;51.542;7.314;2023-07-29T13:11:21;24.70;99.90
14006;DHT22;7078;51.542;7.314;2023-07-29T13:13:47;24.70;99.90
14006;DHT22;7078;51.542;7.314;2023-07-29T13:16:13;24.80;99.90
14006;DHT22;7078;51.542;7.314;2023-07-29T13:18:39;24.70;99.90
14006;DHT22;7078;51.542;7.314;2023-07-29T13:21:05;24.80;99.90
14006;DHT22;7078;51.542;7.314;2023-07-29T13:23:30;24.90;99.90
14006;DHT22;7078;51.542;7.314;2023-07-29T13:25:57;25.10;99.90
14006;DHT22;7078;51.542;7.314;2023-07-29T13:28:22;25.30;99.90
14006;DHT22;7078;51.542;7.314;2023-07-29T13:30:48;25.00;99.90
14006;DHT22;7078;51.542;7.314;2023-07-29T13:33:14;25.00;99.90
14006;DHT22;7078;51.542;7.314;2023-07-29T13:35:39;24.80;99.90
14006;DHT22;7078;51.542;7.314;2023-07-29T13:38:05;24.60;99.90
14006;DHT22;7078;51.542;7.314;2023-07-29T13:40:31;24.30;99.90
14006;DHT22;7078;51.542;7.314;2023-07-29T13:42:57;24.20;99.90
14006;DHT22;7078;51.542;7.314;2023-07-29T13:45:23;24.00;99.90
14006;DHT22;7078;51.542;7.314;2023-07-29T13:47:51;23.70;99.90
14006;DHT22;7078;51.542;7.314;2023-07-29T13:50:17;23.60;99.90
14006;DHT22;7078;51.542;7.314;2023-07-29T13:52:43;23.40;99.90
14006;DHT22;7078;51.542;7.314;2023-07-29T13:55:09;23.30;99.90
14006;DHT22;7078;51.542;7.314;2023-07-29T13:57:35;23.20;99.90
14006;DHT22;7078;51.542;7.314;2023-07-29T14:00:01;23.10;99.90
14006;DHT22;7078;51.542;7.314;2023-07-29T14:02:26;23.00;99.90
14006;DHT22;7078;51.542;7.314;2023-07-29T14:04:52;23.00;99.90
14006;DHT22;7078;51.542;7.314;2023-07-29T14:07:18;23.00;99.90
14006;DHT22;7078;51.542;7.314;2023-07-29T14:09:44;22.80;99.90
14006;DHT22;7078;51.542;7.314;2023-07-29T14:12:09;22.70;99.90
14006;DHT22;7078;51.542;7.314;2023-07-29T14:14:38;22.50;99.90
14006;DHT22;7078;51.542;7.314;2023-07-29T14:17:04;22.30;99.90
14006;DHT22;7078;51.542;7.314;2023-07-29T14:19:29;22.10;99.90
14006;DHT22;7078;51.542;7.314;2023-07-29T14:21:55;21.90;99.90
14006;DHT22;7078;51.542;7.314;2023-07-29T14:24:20;21.70;99.90
14006;DHT22;7078;51.542;7.314;2023-07-29T14:26:47;21.50;99.90
14006;DHT22;7078;51.542;7.314;2023-07-29T14:29:12;21.30;99.90
14006;DHT22;7078;51.542;7.314;2023-07-29T14:31:38;21.10;99.90
14006;DHT22;7078;51.542;7.314;2023-07-29T14:34:04;20.80;99.90
14006;DHT22;7078;51.542;7.314;2023-07-29T14:36:29;20.40;99.90
14006;DHT22;7078;51.542;7.314;2023-07-29T14:38:55;20.00;99.90
14006;DHT22;7078;51.542;7.314;2023-07-29T14:41:20;19.60;99.90
14006;DHT22;7078;51.542;7.314;2023-07-29T14:43:46;19.30;99.90
14006;DHT22;7078;51.542;7.314;2023-07-29T14:46:12;19.00;99.90
14006;DHT22;7078;51.542;7.314;2023-07-29T14:48:38;18.80;99.90
14006;DHT22;7078;51.542;7.314;2023-07-29T14:51:04;18.50;99.90
14006;DHT22;7078;51.542;7.314;2023-07-29T14:53:29;18.30;99.90
14006;DHT22;7078;51.542;7.314;2023-07-29T14:55:55;18.10;99.90
14006;DHT22;7078;51.542;7.314;2023-07-29T14:58:20;18.20;99.90
14006;DHT22;7078;51.542;7.314;2023-07-29T15:00:46;18.20;99.90
14006;DHT22;7078;51.542;7.314;2023-07-29T15:03:11;18.50;99.90
14006;DHT22;7078;51.542;7.314;2023-07-29T15:05:37;18.80;99.90
14006;DHT22;7078;51.542;7.314;2023-07-29T15:08:02;19.50;99.90
14006;DHT22;7078;51.542;7.314;2023-07-29T15:10:28;20.40;99.90
14006;DHT22;7078;51.542;7.314;2023-07-29T15:12:53;21.30;99.90
14006;DHT22;7078;51.542;7.314;2023-07-29T15:15:19;22.00;99.90
14006;DHT22;7078;51.542;7.314;2023-07-29T15:17:45;22.50;99.90
14006;DHT22;7078;51.542;7.314;2023-07-29T15:20:11;23.00;99.90
14006;DHT22;7078;51.542;7.314;2023-07-29T15:22:36;23.30;99.90
14006;DHT22;7078;51.542;7.314;2023-07-29T15:25:02;23.20;99.90
14006;DHT22;7078;51.542;7.314;2023-07-29T15:27:28;22.90;99.90
14006;DHT22;7078;51.542;7.314;2023-07-29T15:29:54;22.50;99.90
14006;DHT22;7078;51.542;7.314;2023-07-29T15:32:20;22.10;99.90
14006;DHT22;7078;51.542;7.314;2023-07-29T15:34:46;21.70;99.90
14006;DHT22;7078;51.542;7.314;2023-07-29T15:37:11;21.40;99.90
14006;DHT22;7078;51.542;7.314;2023-07-29T15:39:37;21.10;99.90
14006;DHT22;7078;51.542;7.314;2023-07-29T15:42:03;20.90;99.90
14006;DHT22;7078;51.542;7.314;2023-07-29T15:44:28;20.80;99.90
14006;DHT22;7078;51.542;7.314;2023-07-29T15:46:54;20.70;99.90
14006;DHT22;7078;51.542;7.314;2023-07-29T15:49:22;20.70;99.90
14006;DHT22;7078;51.542;7.314;2023-07-29T15:51:47;20.90;99.90
14006;DHT22;7078;51.542;7.314;2023-07-29T15:54:13;21.30;99.90
14006;DHT22;7078;51.542;7.314;2023-07-29T15:56:38;21.60;99.90